Wellington (NZWN)

Aerodrome — Elev 42
New Zealand
S041.19.37.999 E174.48.19.001
Loading chart...

Current Weather

NZWN 240500Z AUTO 36020G31KT 9999 OVC012/// 16/14 Q1023 NOSIG

Published 40 minutes ago

Airport Activity

Loading chart...
Loading chart...

Standard ATC Positions

CallsignRadio Name / Freq / Voice Room / TypeFrequencyType
NZCH-T_CTR Christchurch Control
123.700
nzch-t_ctr
123.700
NZWN_APP Wellington Approach
119.300
nzwn_app
119.300
NZWN_TWR Wellington Tower
118.800
nzwn_twr
118.800
NZWN_GND Wellington Ground
121.900
nzwn_gnd
121.900
NZWN_DEL Wellington Delivery
128.200
nzwn_del
128.200
NZWN_ATIS Wellington ATIS
126.900
nzwn_atis
126.900
UNICOM NZZC UNICOM
122.800
unicom_nzzc
122.800

Event ATC Positions

This airport has additional control positions that are designated for use only during major events.
These non-standard positions must not be staffed unless specifically activated by the VATNZ Airspace Director as part of an official VATNZ event.
At all other times, controllers should use the designated Standard ATC Positions.

CallsignRadio Name / Freq / Voice Room / TypeFrequencyType
NZWN_DEP Wellington Approach
122.300
nzwn_dep
122.300

Charts